createdAt,value
2023-09-14T00:01:18.572Z,3.35
2023-09-14T00:03:46.949Z,3.00
2023-09-14T00:06:15.305Z,3.33
2023-09-14T00:08:44.167Z,2.67
2023-09-14T00:11:13.668Z,3.00
2023-09-14T00:13:42.060Z,3.10
2023-09-14T00:16:10.476Z,3.00
2023-09-14T00:18:38.725Z,3.03
2023-09-14T00:21:06.908Z,3.28
2023-09-14T00:23:34.885Z,3.20
2023-09-14T00:26:03.013Z,3.10
2023-09-14T00:28:31.025Z,3.13
2023-09-14T00:30:59.225Z,2.95
2023-09-14T00:33:28.655Z,3.05
2023-09-14T00:35:56.915Z,3.35
2023-09-14T00:38:26.552Z,3.00
2023-09-14T00:40:55.226Z,3.55
2023-09-14T00:43:23.209Z,2.88
2023-09-14T00:45:52.046Z,3.42
2023-09-14T00:48:20.227Z,3.10
2023-09-14T00:50:48.667Z,2.90
2023-09-14T00:53:20.902Z,2.63
2023-09-14T00:55:48.921Z,2.80
2023-09-14T00:58:17.508Z,3.63
2023-09-14T01:00:47.498Z,4.38
2023-09-14T01:03:16.174Z,2.60
2023-09-14T01:05:45.919Z,2.95
2023-09-14T01:08:14.817Z,2.92
2023-09-14T01:10:44.218Z,2.95
2023-09-14T01:13:23.458Z,3.50
2023-09-14T01:16:00.793Z,2.90
2023-09-14T01:18:33.286Z,3.05
2023-09-14T01:21:20.025Z,2.70
2023-09-14T01:24:08.704Z,3.05
2023-09-14T01:26:37.360Z,2.88
2023-09-14T01:29:05.782Z,2.90
2023-09-14T01:31:34.181Z,2.97
2023-09-14T01:34:03.655Z,2.90
2023-09-14T01:37:03.955Z,2.97
2023-09-14T01:39:33.755Z,2.33
2023-09-14T01:42:03.549Z,2.95
2023-09-14T01:44:32.494Z,2.95
2023-09-14T01:47:02.522Z,3.10
2023-09-14T01:49:30.855Z,3.38
2023-09-14T01:51:59.066Z,3.05
2023-09-14T01:54:27.149Z,2.63
2023-09-14T01:56:55.153Z,2.90
2023-09-14T01:59:22.993Z,3.58
2023-09-14T02:01:50.797Z,3.15
2023-09-14T02:04:18.834Z,2.83
2023-09-14T02:06:46.928Z,3.30
2023-09-14T02:09:14.915Z,2.70
2023-09-14T02:11:45.117Z,3.08
2023-09-14T02:14:13.263Z,2.65
2023-09-14T02:16:41.349Z,2.80
2023-09-14T02:19:09.962Z,2.38
2023-09-14T02:21:38.193Z,2.00
2023-09-14T02:24:06.327Z,2.83
2023-09-14T02:26:34.315Z,2.95
2023-09-14T02:29:02.397Z,2.72
2023-09-14T02:31:30.497Z,2.58
2023-09-14T02:33:58.548Z,2.47
2023-09-14T02:36:27.539Z,2.67
2023-09-14T02:38:55.734Z,2.58
2023-09-14T02:41:23.762Z,2.35
2023-09-14T02:43:51.899Z,3.55
2023-09-14T02:46:20.098Z,2.35
2023-09-14T02:48:48.590Z,2.88
2023-09-14T02:51:16.990Z,2.30
2023-09-14T02:53:44.989Z,3.22
2023-09-14T02:56:13.087Z,1.92
2023-09-14T02:58:41.425Z,2.38
2023-09-14T03:01:11.229Z,2.38
2023-09-14T03:03:41.520Z,2.30
2023-09-14T03:06:10.180Z,2.17
2023-09-14T03:08:38.505Z,2.30
2023-09-14T03:11:06.915Z,2.05
2023-09-14T03:13:35.033Z,2.22
2023-09-14T03:16:03.359Z,2.25
2023-09-14T03:18:31.218Z,2.30
2023-09-14T03:20:59.369Z,3.38
2023-09-14T03:23:27.575Z,2.10
2023-09-14T03:25:57.847Z,2.13
2023-09-14T03:28:25.984Z,2.20
2023-09-14T03:30:55.256Z,1.90
2023-09-14T03:33:24.227Z,2.00
2023-09-14T03:35:52.371Z,2.30
2023-09-14T03:38:21.087Z,2.13
2023-09-14T03:40:49.690Z,1.92
2023-09-14T03:43:17.748Z,2.30
2023-09-14T03:45:45.859Z,2.00
2023-09-14T03:48:14.117Z,2.30
2023-09-14T03:50:43.116Z,1.80
2023-09-14T03:53:11.679Z,2.10
2023-09-14T03:55:40.087Z,2.28
2023-09-14T03:58:08.520Z,1.95
2023-09-14T04:00:37.195Z,1.77
2023-09-14T04:03:05.618Z,1.65
2023-09-14T04:05:33.988Z,2.38
2023-09-14T04:08:01.841Z,1.90
2023-09-14T04:10:29.708Z,1.88
2023-09-14T04:13:33.682Z,2.10
2023-09-14T04:16:08.643Z,2.08
2023-09-14T04:18:40.114Z,2.55
2023-09-14T04:21:08.909Z,2.00
2023-09-14T04:23:36.887Z,1.60
2023-09-14T04:26:07.621Z,2.10
2023-09-14T04:28:36.685Z,2.03
2023-09-14T04:31:09.647Z,2.08
2023-09-14T04:33:37.911Z,2.88
2023-09-14T04:36:08.909Z,2.83
2023-09-14T04:38:41.089Z,4.20
2023-09-14T04:41:09.518Z,5.03
2023-09-14T04:43:38.297Z,3.90
2023-09-14T04:46:06.831Z,4.57
2023-09-14T04:48:39.419Z,3.65
2023-09-14T04:51:07.964Z,4.65
2023-09-14T04:53:36.844Z,6.85
2023-09-14T04:56:05.290Z,5.13
2023-09-14T04:58:34.640Z,7.13
2023-09-14T05:01:02.567Z,7.40
2023-09-14T05:03:30.706Z,3.80
2023-09-14T05:06:00.383Z,6.38
2023-09-14T05:08:28.723Z,5.43
2023-09-14T05:10:58.233Z,5.45
2023-09-14T05:13:26.330Z,3.85
2023-09-14T05:15:54.868Z,5.50
2023-09-14T05:18:26.691Z,4.55
2023-09-14T05:20:54.757Z,5.18
2023-09-14T05:23:22.757Z,4.95
2023-09-14T05:25:51.389Z,5.47
2023-09-14T05:28:19.551Z,5.03
2023-09-14T05:30:47.716Z,5.38
2023-09-14T05:33:15.881Z,9.20
2023-09-14T05:35:45.445Z,5.82
2023-09-14T05:38:16.517Z,5.55
2023-09-14T05:40:44.621Z,6.57
2023-09-14T05:43:12.603Z,5.63
2023-09-14T05:45:42.968Z,5.43
2023-09-14T05:48:10.904Z,4.03
2023-09-14T05:50:39.053Z,7.47
2023-09-14T05:53:09.090Z,5.18
2023-09-14T05:55:38.203Z,4.50
2023-09-14T05:58:06.351Z,4.22
2023-09-14T06:00:34.791Z,4.68
2023-09-14T06:03:03.016Z,4.28
2023-09-14T06:05:31.110Z,4.75
2023-09-14T06:07:59.284Z,4.70
2023-09-14T06:10:29.650Z,4.10
2023-09-14T06:12:59.211Z,4.72
2023-09-14T06:15:27.325Z,5.95
2023-09-14T06:17:55.485Z,5.32
2023-09-14T06:20:23.686Z,6.50
2023-09-14T06:22:51.617Z,3.67
2023-09-14T06:25:19.846Z,5.03
2023-09-14T06:27:48.121Z,6.00
2023-09-14T06:30:16.352Z,10.35
2023-09-14T06:32:44.611Z,4.78
2023-09-14T06:35:12.712Z,5.63
2023-09-14T06:37:40.662Z,5.13
2023-09-14T06:40:10.405Z,4.40
2023-09-14T06:42:38.820Z,5.28
2023-09-14T06:45:08.158Z,4.05
2023-09-14T06:47:36.301Z,4.88
2023-09-14T06:50:05.472Z,5.07
2023-09-14T06:52:35.169Z,4.88
2023-09-14T06:55:04.113Z,9.55
2023-09-14T06:57:32.396Z,4.43
2023-09-14T07:00:02.075Z,4.13
2023-09-14T07:02:32.125Z,4.43
2023-09-14T07:05:00.859Z,4.20
2023-09-14T07:07:29.041Z,6.10
2023-09-14T07:09:57.635Z,5.03
2023-09-14T07:12:25.836Z,3.70
2023-09-14T07:14:54.714Z,4.25
2023-09-14T07:17:23.489Z,4.35
2023-09-14T07:19:52.032Z,6.18
2023-09-14T07:22:21.276Z,3.83
2023-09-14T07:24:49.440Z,4.18
2023-09-14T07:27:18.403Z,4.57
2023-09-14T07:29:48.220Z,6.90
2023-09-14T07:32:16.375Z,3.42
2023-09-14T07:34:44.471Z,4.85
2023-09-14T07:37:12.399Z,7.07
2023-09-14T07:39:40.464Z,4.97
2023-09-14T07:42:08.516Z,3.83
2023-09-14T07:44:36.557Z,5.50
2023-09-14T07:47:04.712Z,5.68
2023-09-14T07:49:33.357Z,4.60
2023-09-14T07:52:01.443Z,5.03
2023-09-14T07:54:29.470Z,6.18
2023-09-14T07:56:57.597Z,5.32
2023-09-14T07:59:25.635Z,4.07
2023-09-14T08:01:53.687Z,4.80
2023-09-14T08:04:21.913Z,5.50
2023-09-14T08:06:50.049Z,5.32
2023-09-14T08:09:18.137Z,5.93
2023-09-14T08:11:46.379Z,6.90
2023-09-14T08:14:14.416Z,5.38
2023-09-14T08:16:42.479Z,4.60
2023-09-14T08:19:10.614Z,7.22
2023-09-14T08:21:38.928Z,5.15
2023-09-14T08:24:07.125Z,6.22
2023-09-14T08:26:35.678Z,5.65
2023-09-14T08:29:03.819Z,5.13
2023-09-14T08:31:31.779Z,6.22
2023-09-14T08:33:59.866Z,5.28
2023-09-14T08:36:29.242Z,5.65
2023-09-14T08:39:11.104Z,6.38
2023-09-14T08:41:45.013Z,13.27
2023-09-14T08:44:15.286Z,5.32
2023-09-14T08:46:43.838Z,6.95
2023-09-14T08:49:12.942Z,7.20
2023-09-14T08:51:43.489Z,6.93
2023-09-14T08:54:17.303Z,5.30
2023-09-14T08:56:46.718Z,7.20
2023-09-14T08:59:17.723Z,5.10
2023-09-14T09:01:46.448Z,5.85
2023-09-14T09:04:14.540Z,4.63
2023-09-14T09:06:46.087Z,6.10
2023-09-14T09:09:19.234Z,4.38
2023-09-14T09:11:48.523Z,6.75
2023-09-14T09:14:16.751Z,4.53
2023-09-14T09:16:45.053Z,4.93
2023-09-14T09:19:13.242Z,4.63
2023-09-14T09:21:43.131Z,5.03
2023-09-14T09:24:14.824Z,4.50
2023-09-14T09:26:43.645Z,4.03
2023-09-14T09:29:21.602Z,4.32
2023-09-14T09:31:52.230Z,4.32
2023-09-14T09:34:29.684Z,5.32
2023-09-14T09:36:59.524Z,5.05
2023-09-14T09:39:27.608Z,5.53
2023-09-14T09:41:55.710Z,8.00
2023-09-14T09:44:29.220Z,6.97
2023-09-14T09:46:58.738Z,11.55
2023-09-14T09:49:30.797Z,7.18
2023-09-14T09:51:59.451Z,6.68
2023-09-14T09:54:29.083Z,6.18
2023-09-14T09:56:58.032Z,6.07
2023-09-14T09:59:27.479Z,6.20
2023-09-14T10:01:56.932Z,11.00
2023-09-14T10:04:28.674Z,5.95
2023-09-14T10:06:57.129Z,6.85
2023-09-14T10:09:28.471Z,9.85
2023-09-14T10:12:04.704Z,9.32
2023-09-14T10:14:37.218Z,8.25
2023-09-14T10:17:08.651Z,10.10
2023-09-14T10:19:39.726Z,6.63
2023-09-14T10:22:08.785Z,8.10
2023-09-14T10:24:38.506Z,8.15
2023-09-14T10:27:08.711Z,7.18
2023-09-14T10:29:42.365Z,7.15
2023-09-14T10:32:16.283Z,8.50
2023-09-14T10:35:00.376Z,9.93
2023-09-14T10:37:36.769Z,7.55
2023-09-14T10:40:06.095Z,6.63
2023-09-14T10:42:34.136Z,8.52
2023-09-14T10:45:03.328Z,7.72
2023-09-14T10:47:37.880Z,9.63
2023-09-14T10:50:07.465Z,6.90
2023-09-14T10:52:36.170Z,11.90
2023-09-14T10:55:09.708Z,8.75
2023-09-14T11:00:23.822Z,9.35
2023-09-14T11:03:15.464Z,11.90
2023-09-14T11:05:51.362Z,9.30
2023-09-14T11:08:21.573Z,8.60
2023-09-14T11:10:59.288Z,7.55
2023-09-14T11:13:31.734Z,11.52
2023-09-14T11:16:12.095Z,9.93
2023-09-14T11:18:47.484Z,8.20
2023-09-14T11:21:45.613Z,8.40
2023-09-14T11:24:14.465Z,7.47
2023-09-14T11:26:49.647Z,6.63
2023-09-14T11:29:19.829Z,9.68
2023-09-14T11:32:06.916Z,7.72
2023-09-14T11:34:39.217Z,6.65
2023-09-14T11:37:15.134Z,6.85
2023-09-14T11:39:58.989Z,6.30
2023-09-14T11:42:33.978Z,6.30
2023-09-14T11:45:12.398Z,8.85
2023-09-14T11:47:46.463Z,6.43
2023-09-14T11:50:16.358Z,5.93
2023-09-14T11:52:46.100Z,6.50
2023-09-14T11:55:20.752Z,5.13
2023-09-14T11:57:50.156Z,4.80
2023-09-14T12:00:18.791Z,5.75
2023-09-14T12:02:48.220Z,5.55
2023-09-14T12:05:20.029Z,5.50
2023-09-14T12:07:47.974Z,6.15
2023-09-14T12:10:20.797Z,6.10
2023-09-14T12:12:48.989Z,5.45
2023-09-14T12:15:23.493Z,5.05
2023-09-14T12:17:53.391Z,5.90
2023-09-14T12:20:21.585Z,5.13
2023-09-14T12:22:49.717Z,6.53
2023-09-14T12:25:19.324Z,5.32
2023-09-14T12:27:48.091Z,4.95
2023-09-14T12:30:17.721Z,4.90
2023-09-14T12:32:46.126Z,4.90
2023-09-14T12:35:17.712Z,4.78
2023-09-14T12:37:46.436Z,4.95
2023-09-14T12:40:15.072Z,4.95
2023-09-14T12:42:44.505Z,4.45
2023-09-14T12:45:23.915Z,5.93
2023-09-14T12:47:52.014Z,4.68
2023-09-14T12:50:20.081Z,4.45
2023-09-14T12:52:48.774Z,5.03
2023-09-14T12:55:19.262Z,5.20
2023-09-14T12:57:48.987Z,4.45
2023-09-14T13:00:19.258Z,4.25
2023-09-14T13:02:50.304Z,6.07
2023-09-14T13:05:22.122Z,5.43
2023-09-14T13:07:52.055Z,4.80
2023-09-14T13:10:25.179Z,4.50
2023-09-14T13:13:01.984Z,4.05
2023-09-14T13:15:31.561Z,4.30
2023-09-14T13:18:04.973Z,4.43
2023-09-14T13:20:36.103Z,3.95
2023-09-14T13:23:07.522Z,4.30
2023-09-14T13:25:35.651Z,4.28
2023-09-14T13:28:04.354Z,4.15
2023-09-14T13:30:32.504Z,4.28
2023-09-14T13:33:00.742Z,4.55
2023-09-14T13:35:30.384Z,4.95
2023-09-14T13:37:58.719Z,4.32
2023-09-14T13:40:29.411Z,4.75
2023-09-14T13:42:59.405Z,21.08
2023-09-14T13:45:30.637Z,4.38
2023-09-14T13:47:59.134Z,5.53
2023-09-14T13:50:27.627Z,4.70
2023-09-14T13:52:55.724Z,4.32
2023-09-14T13:55:23.821Z,4.55
2023-09-14T13:57:51.883Z,10.50
2023-09-14T14:00:20.199Z,14.52
2023-09-14T14:02:50.874Z,4.20
2023-09-14T14:05:19.652Z,7.30
2023-09-14T14:07:47.603Z,4.97
2023-09-14T14:10:15.884Z,3.90
2023-09-14T14:12:44.636Z,7.88
2023-09-14T14:15:13.572Z,5.70
2023-09-14T14:17:41.892Z,5.55
2023-09-14T14:20:10.954Z,3.90
2023-09-14T14:22:39.397Z,3.92
2023-09-14T14:25:08.087Z,4.22
2023-09-14T14:27:42.939Z,5.53
2023-09-14T14:30:13.349Z,4.28
2023-09-14T14:32:41.725Z,4.25
2023-09-14T14:35:10.519Z,4.07
2023-09-14T14:37:38.919Z,5.65
2023-09-14T14:40:07.723Z,4.55
2023-09-14T14:42:36.295Z,4.43
2023-09-14T14:45:06.969Z,6.05
2023-09-14T14:47:35.036Z,5.50
2023-09-14T14:50:04.916Z,4.07
2023-09-14T14:52:32.998Z,5.13
2023-09-14T14:55:01.253Z,5.88
2023-09-14T14:57:29.391Z,4.10
2023-09-14T14:59:57.508Z,4.57
2023-09-14T15:02:25.634Z,3.90
2023-09-14T15:04:54.233Z,4.10
2023-09-14T15:07:22.167Z,3.97
2023-09-14T15:09:50.269Z,3.75
2023-09-14T15:12:18.325Z,5.03
2023-09-14T15:14:46.672Z,4.18
2023-09-14T15:17:14.646Z,4.05
2023-09-14T15:19:44.797Z,3.88
2023-09-14T15:22:12.770Z,3.88
2023-09-14T15:24:40.899Z,4.22
2023-09-14T15:27:08.937Z,4.00
2023-09-14T15:29:37.702Z,3.63
2023-09-14T15:32:05.943Z,3.65
2023-09-14T15:34:34.005Z,3.90
2023-09-14T15:37:02.140Z,3.53
2023-09-14T15:39:30.709Z,3.78
2023-09-14T15:41:58.779Z,3.80
2023-09-14T15:44:26.827Z,3.55
2023-09-14T15:46:54.976Z,3.63
2023-09-14T15:49:23.364Z,4.28
2023-09-14T15:51:51.767Z,3.67
2023-09-14T15:54:22.138Z,3.85
2023-09-14T15:56:50.302Z,3.58
2023-09-14T15:59:18.229Z,3.30
2023-09-14T16:01:46.368Z,4.10
2023-09-14T16:04:15.903Z,3.50
2023-09-14T16:06:50.475Z,3.50
2023-09-14T16:09:19.197Z,3.10
2023-09-14T16:11:47.697Z,3.17
2023-09-14T16:14:16.063Z,3.40
2023-09-14T16:16:48.342Z,4.15
2023-09-14T16:19:17.267Z,3.47
2023-09-14T16:21:45.427Z,3.88
2023-09-14T16:24:13.763Z,3.53
2023-09-14T16:26:42.623Z,3.42
2023-09-14T16:29:10.938Z,3.20
2023-09-14T16:31:39.018Z,3.50
2023-09-14T16:34:07.173Z,3.72
2023-09-14T16:36:35.305Z,3.50
2023-09-14T16:39:08.129Z,3.20
2023-09-14T16:41:40.743Z,3.40
2023-09-14T16:44:09.044Z,2.90
2023-09-14T16:46:39.023Z,3.28
2023-09-14T16:49:25.538Z,3.45
2023-09-14T16:51:53.968Z,4.68
2023-09-14T16:54:24.941Z,3.50
2023-09-14T16:56:59.580Z,3.58
2023-09-14T16:59:28.493Z,3.58
2023-09-14T17:01:56.918Z,3.50
2023-09-14T17:04:25.093Z,3.40
2023-09-14T17:06:54.467Z,4.03
2023-09-14T17:09:22.552Z,3.40
2023-09-14T17:11:51.062Z,3.90
2023-09-14T17:14:20.678Z,3.63
2023-09-14T17:16:48.846Z,3.20
2023-09-14T17:19:17.035Z,3.30
2023-09-14T17:21:45.605Z,3.47
2023-09-14T17:24:14.038Z,3.20
2023-09-14T17:26:42.149Z,3.83
2023-09-14T17:29:13.333Z,3.42
2023-09-14T17:31:41.486Z,3.42
2023-09-14T17:34:09.887Z,3.33
2023-09-14T17:36:37.925Z,3.33
2023-09-14T17:39:06.176Z,3.70
2023-09-14T17:41:34.294Z,3.72
2023-09-14T17:44:03.056Z,3.55
2023-09-14T17:46:31.341Z,3.40
2023-09-14T17:48:59.552Z,3.33
2023-09-14T17:51:28.306Z,3.10
2023-09-14T17:53:56.518Z,3.45
2023-09-14T17:56:24.454Z,3.33
2023-09-14T17:58:52.764Z,2.95
2023-09-14T18:01:21.373Z,3.17
2023-09-14T18:03:52.661Z,2.88
2023-09-14T18:06:21.052Z,3.33
2023-09-14T18:08:49.646Z,3.33
2023-09-14T18:11:17.858Z,3.25
2023-09-14T18:13:45.884Z,3.22
2023-09-14T18:16:16.358Z,4.18
2023-09-14T18:18:45.128Z,3.35
2023-09-14T18:21:14.050Z,3.38
2023-09-14T18:23:43.084Z,3.60
2023-09-14T18:26:11.316Z,3.10
2023-09-14T18:28:39.294Z,3.70
2023-09-14T18:31:07.409Z,3.08
2023-09-14T18:33:36.018Z,3.33
2023-09-14T18:36:04.313Z,3.22
2023-09-14T18:38:32.350Z,3.55
2023-09-14T18:41:04.303Z,5.18
2023-09-14T18:43:33.267Z,3.15
2023-09-14T18:46:01.483Z,3.42
2023-09-14T18:48:29.545Z,3.10
2023-09-14T18:51:04.475Z,3.42
2023-09-14T18:53:32.669Z,2.80
2023-09-14T18:56:01.061Z,3.40
2023-09-14T18:59:01.284Z,3.20
2023-09-14T19:01:17.128Z,3.00
2023-09-14T19:03:45.455Z,3.92
2023-09-14T19:06:13.596Z,3.53
2023-09-14T19:08:41.677Z,3.42
2023-09-14T19:11:09.832Z,3.10
2023-09-14T19:13:37.918Z,3.00
2023-09-14T19:16:06.128Z,3.15
2023-09-14T19:18:34.208Z,3.10
2023-09-14T19:21:02.238Z,3.42
2023-09-14T19:23:30.402Z,3.30
2023-09-14T19:25:58.370Z,3.33
2023-09-14T19:28:28.911Z,3.10
2023-09-14T19:30:59.709Z,3.00
2023-09-14T19:33:27.998Z,3.10
2023-09-14T19:35:55.969Z,3.33
2023-09-14T19:38:24.436Z,3.25
2023-09-14T19:40:52.656Z,2.60
2023-09-14T19:43:20.717Z,3.10
2023-09-14T19:45:49.204Z,3.40
2023-09-14T19:48:17.372Z,2.90
2023-09-14T19:50:46.226Z,3.10
2023-09-14T19:53:15.622Z,3.67
2023-09-14T19:55:47.431Z,3.10
2023-09-14T19:58:15.726Z,3.00
2023-09-14T20:00:43.910Z,2.80
2023-09-14T20:03:11.977Z,2.70
2023-09-14T20:05:40.028Z,3.53
2023-09-14T20:08:09.711Z,2.92
2023-09-14T20:10:38.252Z,3.40
2023-09-14T20:13:07.919Z,3.30
2023-09-14T20:15:36.504Z,3.80
2023-09-14T20:18:05.053Z,3.03
2023-09-14T20:20:33.767Z,3.10
2023-09-14T20:23:03.988Z,3.28
2023-09-14T20:25:32.275Z,3.45
2023-09-14T20:28:00.664Z,3.20
2023-09-14T20:30:28.756Z,3.45
2023-09-14T20:32:59.356Z,3.60
2023-09-14T20:35:27.956Z,3.20
2023-09-14T20:37:55.951Z,3.13
2023-09-14T20:40:28.102Z,3.05
2023-09-14T20:42:56.211Z,3.05
2023-09-14T20:45:24.263Z,3.10
2023-09-14T20:47:52.232Z,3.38
2023-09-14T20:50:20.260Z,3.40
2023-09-14T20:52:50.072Z,3.00
2023-09-14T20:55:20.384Z,3.35
2023-09-14T20:57:56.485Z,2.90
2023-09-14T21:00:25.205Z,3.30
2023-09-14T21:02:53.250Z,3.30
2023-09-14T21:05:21.203Z,3.25
2023-09-14T21:07:49.251Z,3.50
2023-09-14T21:10:17.568Z,3.00
2023-09-14T21:12:45.534Z,3.25
2023-09-14T21:15:13.834Z,3.17
2023-09-14T21:17:41.710Z,2.65
2023-09-14T21:20:09.899Z,3.10
2023-09-14T21:22:38.237Z,3.00
2023-09-14T21:25:07.126Z,3.15
2023-09-14T21:27:37.169Z,2.70
2023-09-14T21:30:07.828Z,3.00
2023-09-14T21:32:35.936Z,2.90
2023-09-14T21:35:07.150Z,3.40
2023-09-14T21:37:35.170Z,3.28
2023-09-14T21:40:04.394Z,3.10
2023-09-14T21:42:33.469Z,3.22
2023-09-14T21:45:01.556Z,3.13
2023-09-14T21:47:31.722Z,3.15
2023-09-14T21:49:59.783Z,2.92
2023-09-14T21:52:28.370Z,3.05
2023-09-14T21:54:56.453Z,3.22
2023-09-14T21:57:24.628Z,3.20
2023-09-14T21:59:53.462Z,3.00
2023-09-14T22:02:21.668Z,3.10
2023-09-14T22:04:49.537Z,3.17
2023-09-14T22:07:17.581Z,3.15
2023-09-14T22:09:45.471Z,3.10
2023-09-14T22:12:13.486Z,3.08
2023-09-14T22:14:43.091Z,3.05
2023-09-14T22:17:11.853Z,3.25
2023-09-14T22:19:41.761Z,2.75
2023-09-14T22:22:12.216Z,3.35
2023-09-14T22:24:40.413Z,3.20
2023-09-14T22:27:08.498Z,3.00
2023-09-14T22:29:36.855Z,3.15
2023-09-14T22:32:05.504Z,3.30
2023-09-14T22:34:33.555Z,2.78
2023-09-14T22:37:01.470Z,2.92
2023-09-14T22:39:29.479Z,3.15
2023-09-14T22:41:57.368Z,3.03
2023-09-14T22:44:25.564Z,2.58
2023-09-14T22:46:53.754Z,3.20
2023-09-14T22:49:21.887Z,2.85
2023-09-14T22:51:50.071Z,2.90
2023-09-14T22:54:18.582Z,3.20
2023-09-14T22:56:46.744Z,2.85
2023-09-14T22:59:15.382Z,3.22
2023-09-14T23:01:43.968Z,3.08
2023-09-14T23:04:12.030Z,3.00
2023-09-14T23:06:40.199Z,2.80
2023-09-14T23:09:08.197Z,2.80
2023-09-14T23:11:43.784Z,3.10
2023-09-14T23:14:18.588Z,3.20
2023-09-14T23:16:56.356Z,3.22
2023-09-14T23:19:33.133Z,3.10
2023-09-14T23:22:01.876Z,2.55
2023-09-14T23:24:31.586Z,3.45
2023-09-14T23:27:00.283Z,2.63
2023-09-14T23:29:28.527Z,3.17
2023-09-14T23:31:59.304Z,3.30
2023-09-14T23:34:27.534Z,3.10
2023-09-14T23:36:55.862Z,2.95
2023-09-14T23:39:24.455Z,3.00
2023-09-14T23:41:52.499Z,2.55
2023-09-14T23:44:23.459Z,2.90
2023-09-14T23:46:52.811Z,3.13
2023-09-14T23:49:21.316Z,2.70
2023-09-14T23:51:49.589Z,3.20
2023-09-14T23:54:18.120Z,3.00
2023-09-14T23:56:49.409Z,3.13
2023-09-14T23:59:17.568Z,3.22
